Terminal Aerodrome Forecast
Issued by NWS

Home | Current Version | Previous Version | Graphics & Text | Print | Product List | Glossary On
Versions: 1 2 3 4 5 6 7 8 9 10 11 12 13 14 15 16 17
184
FTUS43 KBIS 131419 AAA
TAFMOT
TAF AMD
KMOT 131419Z 1314/1412 13011KT P6SM -SHSN OVC030
     FM131900 15017KT P6SM -SN OVC025
     FM132200 15014KT 1 1/2SM -SN OVC015
     FM140100 15013KT 1SM -SN OVC010
     FM140500 18009KT 1SM -SN OVC008
     FM140800 24010KT 2SM -SN OVC008
     FM140900 26010KT P6SM VCSH OVC008=

USA.gov is the U.S. government's official web portal to all federal, state and local government web resources and services.